createdAt,value
2018-11-22T00:01:23.297Z,52.53
2018-11-22T00:04:04.850Z,57.93
2018-11-22T00:06:45.940Z,57.97
2018-11-22T00:09:27.555Z,53.50
2018-11-22T00:12:09.172Z,52.40
2018-11-22T00:14:50.488Z,55.67
2018-11-22T00:17:31.934Z,53.43
2018-11-22T00:20:13.570Z,54.53
2018-11-22T00:22:54.715Z,57.70
2018-11-22T00:25:35.719Z,54.30
2018-11-22T00:28:16.959Z,51.83
2018-11-22T00:34:07.411Z,55.20
2018-11-22T00:36:48.279Z,53.10
2018-11-22T00:39:29.207Z,54.53
2018-11-22T00:42:10.289Z,49.83
2018-11-22T00:44:51.362Z,58.10
2018-11-22T00:47:32.268Z,54.80
2018-11-22T00:50:17.271Z,56.10
2018-11-22T00:52:59.027Z,50.47
2018-11-22T00:55:40.738Z,60.37
2018-11-22T00:58:21.665Z,57.57
2018-11-22T01:01:03.051Z,47.80
2018-11-22T01:03:44.671Z,55.77
2018-11-22T01:06:25.716Z,52.90
2018-11-22T01:09:06.806Z,56.70
2018-11-22T01:11:47.804Z,59.07
2018-11-22T01:14:28.963Z,58.03
2018-11-22T01:17:09.890Z,52.50
2018-11-22T01:19:51.380Z,55.03
2018-11-22T01:22:33.011Z,53.63
2018-11-22T01:25:15.301Z,51.90
2018-11-22T01:27:56.418Z,54.50
2018-11-22T01:30:37.919Z,52.47
2018-11-22T01:33:18.817Z,49.80
2018-11-22T01:35:59.694Z,51.50
2018-11-22T01:38:41.202Z,53.93
2018-11-22T01:41:22.655Z,54.67
2018-11-22T01:44:04.187Z,52.77
2018-11-22T01:46:45.161Z,57.70
2018-11-22T01:49:26.409Z,50.57
2018-11-22T01:52:08.060Z,62.87
2018-11-22T01:54:49.241Z,59.07
2018-11-22T01:57:30.903Z,51.20
2018-11-22T02:00:12.286Z,54.93
2018-11-22T02:02:53.473Z,48.20
2018-11-22T02:05:35.138Z,48.57
2018-11-22T02:08:16.235Z,50.90
2018-11-22T02:10:57.912Z,52.93
2018-11-22T02:13:42.048Z,50.40
2018-11-22T02:16:23.037Z,50.63
2018-11-22T02:19:04.926Z,49.70
2018-11-22T02:21:45.996Z,47.43
2018-11-22T02:24:27.419Z,47.03
2018-11-22T02:27:08.646Z,45.03
2018-11-22T02:29:50.259Z,45.27
2018-11-22T02:32:31.880Z,47.97
2018-11-22T02:35:13.575Z,54.30
2018-11-22T02:37:54.677Z,51.50
2018-11-22T02:40:35.538Z,47.97
2018-11-22T02:43:16.369Z,48.27
2018-11-22T02:45:57.749Z,53.17
2018-11-22T02:48:39.220Z,46.97
2018-11-22T02:51:20.063Z,44.00
2018-11-22T02:54:01.487Z,46.23
2018-11-22T02:56:42.377Z,47.80
2018-11-22T02:59:23.956Z,45.63
2018-11-22T03:02:05.385Z,47.50
2018-11-22T03:04:46.530Z,47.50
2018-11-22T03:07:27.748Z,48.23
2018-11-22T03:10:09.177Z,44.97
2018-11-22T03:12:50.172Z,46.37
2018-11-22T03:15:31.445Z,42.90
2018-11-22T03:18:12.415Z,45.90
2018-11-22T03:20:54.166Z,43.43
2018-11-22T03:23:35.819Z,47.87
2018-11-22T03:26:16.998Z,41.33
2018-11-22T03:28:58.668Z,47.40
2018-11-22T03:31:40.310Z,42.63
2018-11-22T03:34:21.055Z,44.10
2018-11-22T03:40:07.203Z,45.23
2018-11-22T03:42:48.523Z,45.60
2018-11-22T03:45:29.812Z,43.47
2018-11-22T03:48:10.785Z,44.50
2018-11-22T03:50:51.711Z,40.57
2018-11-22T03:53:32.944Z,45.93
2018-11-22T03:58:57.150Z,43.13
2018-11-22T04:01:37.986Z,45.40
2018-11-22T04:04:19.568Z,44.30
2018-11-22T04:07:00.595Z,44.13
2018-11-22T04:09:42.357Z,46.60
2018-11-22T04:12:23.749Z,42.23
2018-11-22T04:15:05.468Z,42.90
2018-11-22T04:17:46.954Z,44.33
2018-11-22T04:20:29.326Z,45.10
2018-11-22T04:23:10.713Z,43.70
2018-11-22T04:25:52.539Z,46.13
2018-11-22T04:28:34.342Z,45.30
2018-11-22T04:31:15.468Z,44.37
2018-11-22T04:33:56.915Z,46.40
2018-11-22T04:36:38.132Z,45.17
2018-11-22T04:39:19.396Z,44.30
2018-11-22T04:41:48.422Z,46.10
2018-11-22T04:44:36.792Z,46.27
2018-11-22T04:47:25.111Z,45.90
2018-11-22T04:50:14.978Z,52.83
2018-11-22T04:53:03.324Z,48.40
2018-11-22T04:55:51.714Z,48.67
2018-11-22T04:58:40.142Z,47.80
2018-11-22T05:01:28.561Z,44.80
2018-11-22T05:04:16.952Z,47.17
2018-11-22T05:07:05.333Z,46.03
2018-11-22T05:09:53.765Z,49.57
2018-11-22T05:15:55.461Z,42.87
2018-11-22T05:18:43.845Z,45.27
2018-11-22T05:21:32.186Z,48.13
2018-11-22T05:24:20.642Z,48.47
2018-11-22T05:27:09.024Z,50.50
2018-11-22T05:33:10.949Z,48.57
2018-11-22T05:35:59.305Z,47.50
2018-11-22T05:38:47.648Z,47.27
2018-11-22T05:41:36.049Z,42.40
2018-11-22T05:44:24.398Z,45.07
2018-11-22T05:47:12.848Z,47.87
2018-11-22T05:50:01.301Z,45.70
2018-11-22T05:52:50.051Z,50.08
2018-11-22T05:55:38.435Z,49.87
2018-11-22T05:58:26.842Z,49.03
2018-11-22T06:01:16.413Z,50.20
2018-11-22T06:04:03.629Z,47.43
2018-11-22T06:06:52.032Z,47.97
2018-11-22T06:09:40.419Z,48.10
2018-11-22T06:12:28.814Z,46.67
2018-11-22T06:15:17.409Z,53.45
2018-11-22T06:18:05.768Z,54.27
2018-11-22T06:20:54.161Z,56.87
2018-11-22T06:27:17.050Z,47.03
2018-11-22T06:30:07.812Z,45.97
2018-11-22T06:36:17.709Z,47.87
2018-11-22T06:39:07.279Z,47.50
2018-11-22T06:41:55.642Z,54.10
2018-11-22T06:44:44.090Z,48.37
2018-11-22T06:47:32.493Z,49.63
2018-11-22T06:50:21.659Z,48.30
2018-11-22T06:53:10.042Z,49.30
2018-11-22T06:55:58.452Z,48.93
2018-11-22T06:58:46.800Z,47.00
2018-11-22T07:01:35.409Z,48.43
2018-11-22T07:04:23.530Z,53.43
2018-11-22T07:07:11.895Z,50.37
2018-11-22T07:10:00.278Z,46.07
2018-11-22T07:12:48.758Z,52.50
2018-11-22T07:15:37.117Z,46.00
2018-11-22T07:18:25.493Z,49.50
2018-11-22T07:24:27.945Z,51.27
2018-11-22T07:27:16.301Z,45.57
2018-11-22T07:30:05.240Z,44.60
2018-11-22T07:32:53.804Z,45.13
2018-11-22T07:35:42.181Z,50.53
2018-11-22T07:38:30.708Z,47.40
2018-11-22T07:41:19.131Z,43.17
2018-11-22T07:44:07.494Z,46.27
2018-11-22T07:46:55.951Z,45.27
2018-11-22T07:49:44.332Z,51.60
2018-11-22T07:52:34.820Z,48.40
2018-11-22T07:55:23.375Z,41.40
2018-11-22T08:01:01.152Z,51.30
2018-11-22T08:03:49.517Z,49.73
2018-11-22T08:06:37.923Z,46.93
2018-11-22T08:09:26.321Z,41.50
2018-11-22T08:12:14.710Z,45.30
2018-11-22T08:18:12.707Z,45.83
2018-11-22T08:21:04.778Z,44.90
2018-11-22T08:23:49.444Z,40.70
2018-11-22T08:26:37.791Z,41.07
2018-11-22T08:32:39.298Z,39.53
2018-11-22T08:35:27.719Z,39.47
2018-11-22T08:41:05.506Z,45.20
2018-11-22T08:43:53.850Z,43.43
2018-11-22T08:46:42.233Z,38.57
2018-11-22T08:49:30.601Z,38.50
2018-11-22T08:52:18.958Z,43.17
2018-11-22T08:55:07.721Z,39.33
2018-11-22T08:57:56.107Z,38.93
2018-11-22T09:00:44.448Z,37.20
2018-11-22T09:03:32.813Z,41.93
2018-11-22T09:06:14.149Z,36.50
2018-11-22T09:08:55.934Z,43.53
2018-11-22T09:11:37.282Z,41.60
2018-11-22T09:14:18.418Z,41.73
2018-11-22T09:16:59.258Z,42.10
2018-11-22T09:19:40.708Z,42.63
2018-11-22T09:22:21.759Z,40.47
2018-11-22T09:25:04.023Z,40.03
2018-11-22T09:27:45.193Z,39.07
2018-11-22T09:30:27.754Z,37.33
2018-11-22T09:33:09.486Z,36.10
2018-11-22T09:35:51.238Z,34.90
2018-11-22T09:38:32.457Z,34.30
2018-11-22T09:41:13.898Z,37.37
2018-11-22T09:43:55.197Z,37.70
2018-11-22T09:46:36.308Z,35.97
2018-11-22T09:49:17.619Z,34.13
2018-11-22T09:55:23.630Z,35.07
2018-11-22T09:58:04.880Z,35.10
2018-11-22T10:00:46.030Z,33.13
2018-11-22T10:03:26.960Z,35.23
2018-11-22T10:06:08.553Z,41.53
2018-11-22T10:08:49.682Z,38.37
2018-11-22T10:11:30.924Z,35.00
2018-11-22T10:14:11.883Z,33.90
2018-11-22T10:16:53.189Z,32.93
2018-11-22T10:19:34.237Z,35.30
2018-11-22T10:22:15.769Z,34.33
2018-11-22T10:24:57.326Z,33.90
2018-11-22T10:27:38.776Z,31.70
2018-11-22T10:30:20.327Z,32.53
2018-11-22T10:33:02.900Z,40.73
2018-11-22T10:35:44.719Z,31.90
2018-11-22T10:38:25.781Z,34.73
2018-11-22T10:41:26.412Z,30.50
2018-11-22T10:44:07.536Z,33.07
2018-11-22T10:46:48.480Z,32.17
2018-11-22T10:49:30.161Z,28.83
2018-11-22T10:52:11.604Z,29.17
2018-11-22T10:58:32.597Z,28.13
2018-11-22T11:01:33.208Z,31.37
2018-11-22T11:08:12.810Z,30.40
2018-11-22T11:10:54.226Z,28.10
2018-11-22T11:13:35.150Z,26.73
2018-11-22T11:16:16.745Z,28.40
2018-11-22T11:18:57.637Z,27.80
2018-11-22T11:21:38.736Z,30.43
2018-11-22T11:24:19.693Z,28.27
2018-11-22T11:27:01.348Z,27.00
2018-11-22T11:29:45.542Z,27.77
2018-11-22T11:32:28.113Z,24.33
2018-11-22T11:35:10.255Z,28.30
2018-11-22T11:37:51.094Z,29.03
2018-11-22T11:40:33.710Z,27.93
2018-11-22T11:43:14.577Z,26.17
2018-11-22T11:45:55.791Z,26.70
2018-11-22T11:48:37.582Z,26.60
2018-11-22T11:51:18.762Z,25.80
2018-11-22T11:54:00.436Z,24.70
2018-11-22T11:56:41.539Z,26.10
2018-11-22T11:59:22.720Z,28.20
2018-11-22T12:02:04.565Z,28.80
2018-11-22T12:04:45.821Z,28.37
2018-11-22T12:07:27.482Z,26.67
2018-11-22T12:10:08.757Z,28.37
2018-11-22T12:12:49.807Z,24.57
2018-11-22T12:15:31.142Z,26.23
2018-11-22T12:18:12.778Z,26.00
2018-11-22T12:20:54.411Z,32.33
2018-11-22T12:23:35.758Z,29.03
2018-11-22T12:26:17.201Z,28.70
2018-11-22T12:28:58.370Z,24.97
2018-11-22T12:31:40.144Z,27.90
2018-11-22T12:34:43.889Z,25.20
2018-11-22T12:37:44.119Z,23.57
2018-11-22T12:40:25.635Z,24.70
2018-11-22T12:43:06.798Z,26.20
2018-11-22T12:45:48.827Z,27.63
2018-11-22T12:48:29.970Z,25.73
2018-11-22T12:51:11.657Z,26.07
2018-11-22T12:53:52.669Z,23.27
2018-11-22T12:56:34.473Z,24.23
2018-11-22T12:59:15.706Z,26.20
2018-11-22T13:01:56.585Z,28.10
2018-11-22T13:04:38.089Z,27.30
2018-11-22T13:07:19.925Z,25.90
2018-11-22T13:10:00.841Z,22.80
2018-11-22T13:12:43.045Z,23.30
2018-11-22T13:15:24.676Z,21.90
2018-11-22T13:18:05.940Z,22.77
2018-11-22T13:20:47.629Z,26.93
2018-11-22T13:23:29.086Z,24.27
2018-11-22T13:26:09.979Z,22.87
2018-11-22T13:28:50.940Z,28.37
2018-11-22T13:31:32.105Z,22.70
2018-11-22T13:34:13.250Z,24.90
2018-11-22T13:36:57.261Z,26.80
2018-11-22T13:42:59.654Z,24.03
2018-11-22T13:45:40.657Z,25.47
2018-11-22T13:48:21.728Z,25.40
2018-11-22T13:51:03.161Z,23.80
2018-11-22T13:53:44.513Z,22.83
2018-11-22T13:56:26.051Z,19.57
2018-11-22T13:59:09.043Z,20.50
2018-11-22T14:01:50.148Z,24.57
2018-11-22T14:04:31.372Z,26.80
2018-11-22T14:07:12.364Z,22.20
2018-11-22T14:09:53.264Z,26.33
2018-11-22T14:12:35.395Z,25.87
2018-11-22T14:15:23.718Z,22.47
2018-11-22T14:18:05.591Z,26.03
2018-11-22T14:20:47.531Z,31.30
2018-11-22T14:23:28.433Z,30.97
2018-11-22T14:26:10.017Z,23.60
2018-11-22T14:28:51.716Z,24.67
2018-11-22T14:31:32.912Z,25.37
2018-11-22T14:34:14.123Z,27.10
2018-11-22T14:36:55.208Z,22.93
2018-11-22T14:39:36.842Z,29.40
2018-11-22T14:42:18.472Z,30.00
2018-11-22T14:44:59.616Z,28.83
2018-11-22T14:47:41.268Z,27.60
2018-11-22T14:50:22.484Z,27.83
2018-11-22T14:53:22.778Z,31.17
2018-11-22T15:02:31.246Z,27.10
2018-11-22T15:05:13.074Z,30.50
2018-11-22T15:07:54.462Z,36.00
2018-11-22T15:10:36.093Z,26.57
2018-11-22T15:13:17.518Z,27.50
2018-11-22T15:15:58.551Z,26.93
2018-11-22T15:18:39.845Z,31.23
2018-11-22T15:21:20.978Z,26.97
2018-11-22T15:24:02.619Z,27.90
2018-11-22T15:26:43.771Z,28.57
2018-11-22T15:29:24.889Z,25.13
2018-11-22T15:32:06.454Z,32.63
2018-11-22T15:34:48.276Z,26.90
2018-11-22T15:37:30.045Z,28.93
2018-11-22T15:40:12.100Z,38.70
2018-11-22T15:42:54.685Z,26.83
2018-11-22T15:45:36.025Z,31.93
2018-11-22T15:48:17.509Z,28.77
2018-11-22T15:50:58.350Z,32.53
2018-11-22T15:53:39.909Z,35.33
2018-11-22T15:56:21.594Z,36.67
2018-11-22T15:59:02.968Z,30.60
2018-11-22T16:01:44.090Z,45.77
2018-11-22T16:04:25.653Z,30.17
2018-11-22T16:07:07.101Z,32.53
2018-11-22T16:09:48.200Z,31.37
2018-11-22T16:12:29.599Z,27.47
2018-11-22T16:15:11.273Z,51.70
2018-11-22T16:17:52.723Z,65.53
2018-11-22T16:20:34.499Z,41.13
2018-11-22T16:23:16.023Z,39.23
2018-11-22T16:25:57.597Z,31.53
2018-11-22T16:28:39.018Z,29.23
2018-11-22T16:31:20.058Z,35.30
2018-11-22T16:34:01.107Z,32.77
2018-11-22T16:36:42.518Z,36.37
2018-11-22T16:39:24.046Z,29.80
2018-11-22T16:42:05.363Z,32.27
2018-11-22T16:44:46.771Z,41.10
2018-11-22T16:47:28.122Z,39.77
2018-11-22T16:50:09.427Z,35.03
2018-11-22T16:52:50.765Z,35.57
2018-11-22T16:55:31.817Z,31.97
2018-11-22T16:58:12.908Z,28.90
2018-11-22T17:00:54.682Z,28.00
2018-11-22T17:03:36.322Z,29.47
2018-11-22T17:06:17.695Z,29.83
2018-11-22T17:08:59.163Z,26.20
2018-11-22T17:11:43.280Z,32.50
2018-11-22T17:14:25.034Z,30.90
2018-11-22T17:17:06.613Z,27.50
2018-11-22T17:19:47.885Z,32.43
2018-11-22T17:22:29.329Z,26.73
2018-11-22T17:25:12.052Z,31.20
2018-11-22T17:27:55.368Z,29.83
2018-11-22T17:30:38.577Z,31.03
2018-11-22T17:33:20.104Z,33.37
2018-11-22T17:36:01.759Z,34.80
2018-11-22T17:38:43.222Z,39.27
2018-11-22T17:41:24.162Z,34.70
2018-11-22T17:44:05.689Z,32.33
2018-11-22T17:46:46.736Z,33.63
2018-11-22T17:49:28.308Z,33.10
2018-11-22T17:52:09.486Z,32.47
2018-11-22T17:54:50.829Z,32.17
2018-11-22T17:57:31.887Z,30.40
2018-11-22T18:00:14.091Z,32.33
2018-11-22T18:02:56.494Z,30.20
2018-11-22T18:05:37.759Z,34.20
2018-11-22T18:08:19.195Z,32.60
2018-11-22T18:11:00.689Z,30.93
2018-11-22T18:13:41.755Z,30.83
2018-11-22T18:16:23.421Z,31.83
2018-11-22T18:19:04.721Z,29.63
2018-11-22T18:21:46.029Z,31.30
2018-11-22T18:24:27.413Z,33.40
2018-11-22T18:27:08.683Z,28.20
2018-11-22T18:29:49.821Z,28.30
2018-11-22T18:32:31.575Z,27.73
2018-11-22T18:35:13.794Z,28.20
2018-11-22T18:37:54.873Z,26.43
2018-11-22T18:40:38.040Z,29.50
2018-11-22T18:43:19.224Z,29.50
2018-11-22T18:46:00.342Z,32.13
2018-11-22T18:48:41.518Z,27.73
2018-11-22T18:51:22.695Z,28.60
2018-11-22T18:54:03.900Z,30.13
2018-11-22T18:56:45.164Z,29.00
2018-11-22T18:59:26.219Z,33.87
2018-11-22T19:02:08.121Z,31.77
2018-11-22T19:04:48.908Z,29.73
2018-11-22T19:07:30.739Z,32.60
2018-11-22T19:10:13.745Z,28.93
2018-11-22T19:12:56.639Z,29.30
2018-11-22T19:15:41.938Z,33.60
2018-11-22T19:18:23.092Z,27.13
2018-11-22T19:21:04.325Z,41.03
2018-11-22T19:23:45.786Z,36.67
2018-11-22T19:26:26.874Z,30.30
2018-11-22T19:29:08.039Z,31.93
2018-11-22T19:31:49.660Z,27.50
2018-11-22T19:34:30.793Z,35.30
2018-11-22T19:37:12.188Z,55.53
2018-11-22T19:39:53.402Z,52.67
2018-11-22T19:42:34.262Z,33.60
2018-11-22T19:45:16.789Z,32.13
2018-11-22T19:47:58.018Z,32.80
2018-11-22T19:50:39.703Z,35.90
2018-11-22T19:53:21.116Z,33.60
2018-11-22T19:56:02.141Z,34.27
2018-11-22T19:58:43.318Z,39.43
2018-11-22T20:01:24.463Z,39.27
2018-11-22T20:04:05.776Z,38.33
2018-11-22T20:06:47.165Z,44.40
2018-11-22T20:09:28.215Z,38.10
2018-11-22T20:12:09.062Z,33.30
2018-11-22T20:14:50.462Z,34.27
2018-11-22T20:17:32.281Z,34.60
2018-11-22T20:20:14.770Z,35.73
2018-11-22T20:22:56.444Z,35.60
2018-11-22T20:25:37.986Z,34.97
2018-11-22T20:28:19.412Z,34.27
2018-11-22T20:31:00.325Z,35.43
2018-11-22T20:33:41.724Z,35.60
2018-11-22T20:36:23.491Z,38.20
2018-11-22T20:39:05.046Z,28.70
2018-11-22T20:41:46.617Z,36.37
2018-11-22T20:44:28.050Z,34.50
2018-11-22T20:47:12.209Z,31.17
2018-11-22T20:49:53.756Z,31.60
2018-11-22T20:52:34.740Z,33.77
2018-11-22T20:55:20.813Z,37.70
2018-11-22T20:58:03.652Z,35.40
2018-11-22T21:00:45.287Z,31.23
2018-11-22T21:03:26.557Z,33.83
2018-11-22T21:06:07.476Z,34.13
2018-11-22T21:08:48.919Z,32.40
2018-11-22T21:11:30.710Z,30.50
2018-11-22T21:14:11.916Z,31.30
2018-11-22T21:16:53.431Z,34.67
2018-11-22T21:19:34.934Z,37.43
2018-11-22T21:22:16.588Z,33.27
2018-11-22T21:24:57.677Z,39.07
2018-11-22T21:27:38.812Z,43.53
2018-11-22T21:30:39.465Z,39.20
2018-11-22T21:33:20.497Z,34.60
2018-11-22T21:36:02.204Z,35.57
2018-11-22T21:38:43.545Z,37.83
2018-11-22T21:41:24.688Z,40.63
2018-11-22T21:44:06.190Z,31.90
2018-11-22T21:46:47.545Z,38.03
2018-11-22T21:49:28.612Z,40.43
2018-11-22T21:52:09.965Z,37.07
2018-11-22T21:54:51.322Z,46.33
2018-11-22T21:57:32.302Z,47.43
2018-11-22T22:00:13.744Z,46.80
2018-11-22T22:02:55.439Z,48.80
2018-11-22T22:05:36.441Z,41.70
2018-11-22T22:08:17.733Z,46.03
2018-11-22T22:10:59.312Z,42.40
2018-11-22T22:13:40.417Z,40.13
2018-11-22T22:16:21.551Z,39.90
2018-11-22T22:19:02.895Z,36.47
2018-11-22T22:21:44.006Z,38.10
2018-11-22T22:24:25.587Z,35.43
2018-11-22T22:27:06.590Z,39.63
2018-11-22T22:29:48.059Z,41.77
2018-11-22T22:32:29.599Z,39.37
2018-11-22T22:35:11.268Z,38.33
2018-11-22T22:37:52.843Z,34.40
2018-11-22T22:40:34.264Z,34.43
2018-11-22T22:43:15.899Z,36.63
2018-11-22T22:45:57.240Z,37.80
2018-11-22T22:48:38.822Z,36.43
2018-11-22T22:51:20.017Z,39.27
2018-11-22T22:54:01.509Z,38.70
2018-11-22T22:56:42.665Z,34.60
2018-11-22T22:59:24.377Z,31.03
2018-11-22T23:02:05.773Z,35.10
2018-11-22T23:04:46.871Z,38.20
2018-11-22T23:07:27.969Z,40.07
2018-11-22T23:10:09.407Z,38.03
2018-11-22T23:12:50.698Z,33.63
2018-11-22T23:15:32.070Z,44.00
2018-11-22T23:18:13.864Z,37.07
2018-11-22T23:20:57.982Z,34.93
2018-11-22T23:23:39.520Z,35.20
2018-11-22T23:26:20.482Z,39.77
2018-11-22T23:29:01.502Z,32.67
2018-11-22T23:31:42.452Z,38.60
2018-11-22T23:34:23.754Z,42.17
2018-11-22T23:37:05.349Z,38.87
2018-11-22T23:39:46.898Z,34.77
2018-11-22T23:42:28.529Z,34.00
2018-11-22T23:45:10.558Z,35.40
2018-11-22T23:47:51.924Z,33.73
2018-11-22T23:50:33.412Z,38.30
2018-11-22T23:53:14.591Z,35.53
2018-11-22T23:55:55.875Z,37.13
2018-11-22T23:58:36.851Z,34.57
